VMMC METAR and TAF | Updated Today

VMMC METAR

Macau International Airport

Observation time: 10 min. ago

VMMC 291200Z 14009KT 9999 FEW010 SCT025 28/26 Q1005 NOSIG

Need help? Read our tutorial on how to read METARs or read the parsed version below.

Macau International Airport (VMMC) METAR

  • Weather conditions on Sun, 29 May 2022 12:00:00 +0000 (10 min. ago):
  • Present conditions: Dry
  • Clouds: A few at 305 meters; scattered at 762 meters
  • Visibility: Greater than 10 km
  • Wind: 140 degrees at 9 knots
  • Temperature: 28 celsius
  • Dew point: 26 celsius
  • Pressure: 1005 millibars
  • Remarks: None


Useful to know...

VMMC TAF

Macau International Airport

TAF VMMC 291100Z 2912/3018 17008KT 9999 FEW010 SCT025
Observation time: 70 min. ago
Need help? Read our tutorial on how to read TAFs or read the parsed version below.

Parsed version of TAF for Macau International Airport (VMMC)

  • From 29 May at 12:00 UTC, to day 30 of the month at 18:00 UTC
  • Clouds: A few at 305 meters; scattered at 762 meters
  • Visibility: Greater than 10 km
  • Wind: 170 degrees at 8